Главная страница
METAR-TAF:

METAR-TAF

Аэропорты :

Шанхай-Пудун, Китай

Пудун

широта: 31-07N, долгота: 121-46E, высота над уровнем моря: 4 м

Текущие метеонаблюдения

Эта сводка был подготовлена 18 минут назад, в 05:30 UTC
Ветер 16 Узел от северо-северо-восточный
Температура 3°C
Влажность 56%
Давление 1027 hPa
Видимость 10 км и более
Рассеянная облачность на высоте 3000 фута

METAR: ZSPD 240530Z 03008MPS 9999 BKN030 03/M05 Q1027 NOSIG

Время: 13:48 (05:48 UTC)

Прогноз

Эта сводка был подготовлена 2 часа и 30 минут назад, в 03:18 UTC
Прогноз действительный с 24-го 06 UTC до 25-го 06 UTC
Ветер 14 Узел от северо-северо-восточный с порывами до 25 Узел
Видимость: 6000 м
Рассеянная облачность на высоте 1300 фута
временами
С 24-го 19 UTC до 25-го 01 UTC
Видимость: 1500 м
Рассеянная облачность на высоте 500 фута
Сплошная облачность на высоте 3300 фута
небольшой снег, дождь

TAF: ZSPD 240318Z 2406/2506 03007G13MPS 6000 BKN013 TX04/2406Z TNM01/21Z TEMPO 2419/2501 1500 -SNRA BKN005 OVC033

Метеонаблюдения и прогнозы для более 4000 аэропортов (сводки METAR и TAF).

Имеющиеся станции представлены на карте желтыми и красными точками.

Чтобы увидеть название станции, наведите на нее мышь.

Затем щелкните, чтобы увидеть метеонаблюдения и метеопрогнозы.

Управление картой: чтобы увеличить масштаб, щелкните зеленые кнопки с черным крестиком; чтобы уменьшить масштаб, щелкните зеленую кнопку с тире; для просмотра соседних карт щелкайте зеленые стрелки.


METAR-TAF: